sensor_id;sensor_type;location;lat;lon;timestamp;P1;durP1;ratioP1;P2;durP2;ratioP2
13439;SDS011;6792;57.698;11.946;2022-11-27T00:01:39;25.13;;;9.37;;
13439;SDS011;6792;57.698;11.946;2022-11-27T00:04:09;25.03;;;9.70;;
13439;SDS011;6792;57.698;11.946;2022-11-27T00:06:39;25.33;;;9.10;;
13439;SDS011;6792;57.698;11.946;2022-11-27T00:09:10;25.77;;;9.93;;
13439;SDS011;6792;57.698;11.946;2022-11-27T00:11:41;26.90;;;9.50;;
13439;SDS011;6792;57.698;11.946;2022-11-27T00:14:11;25.10;;;9.77;;
13439;SDS011;6792;57.698;11.946;2022-11-27T00:16:42;21.93;;;9.60;;
13439;SDS011;6792;57.698;11.946;2022-11-27T00:19:11;16.33;;;8.90;;
13439;SDS011;6792;57.698;11.946;2022-11-27T00:21:40;22.43;;;8.80;;
13439;SDS011;6792;57.698;11.946;2022-11-27T00:24:11;26.30;;;9.27;;
13439;SDS011;6792;57.698;11.946;2022-11-27T00:26:40;25.70;;;10.07;;
13439;SDS011;6792;57.698;11.946;2022-11-27T00:29:09;24.10;;;9.13;;
13439;SDS011;6792;57.698;11.946;2022-11-27T00:31:38;22.53;;;9.57;;
13439;SDS011;6792;57.698;11.946;2022-11-27T00:34:07;20.40;;;8.67;;
13439;SDS011;6792;57.698;11.946;2022-11-27T00:36:37;24.70;;;8.43;;
13439;SDS011;6792;57.698;11.946;2022-11-27T00:39:06;26.27;;;9.07;;
13439;SDS011;6792;57.698;11.946;2022-11-27T00:41:35;20.03;;;8.60;;
13439;SDS011;6792;57.698;11.946;2022-11-27T00:44:04;21.70;;;8.70;;
13439;SDS011;6792;57.698;11.946;2022-11-27T00:46:33;25.30;;;8.93;;
13439;SDS011;6792;57.698;11.946;2022-11-27T00:49:04;23.33;;;8.73;;
13439;SDS011;6792;57.698;11.946;2022-11-27T00:51:33;21.77;;;9.33;;
13439;SDS011;6792;57.698;11.946;2022-11-27T00:54:06;20.40;;;8.20;;
13439;SDS011;6792;57.698;11.946;2022-11-27T00:56:35;20.30;;;8.63;;
13439;SDS011;6792;57.698;11.946;2022-11-27T00:59:05;17.60;;;8.37;;
13439;SDS011;6792;57.698;11.946;2022-11-27T01:01:35;24.90;;;8.63;;
13439;SDS011;6792;57.698;11.946;2022-11-27T01:04:07;23.17;;;7.93;;
13439;SDS011;6792;57.698;11.946;2022-11-27T01:06:37;23.23;;;8.13;;
13439;SDS011;6792;57.698;11.946;2022-11-27T01:09:08;21.77;;;8.13;;
13439;SDS011;6792;57.698;11.946;2022-11-27T01:11:38;20.00;;;8.63;;
13439;SDS011;6792;57.698;11.946;2022-11-27T01:14:10;20.40;;;8.97;;
13439;SDS011;6792;57.698;11.946;2022-11-27T01:16:40;18.87;;;8.03;;
13439;SDS011;6792;57.698;11.946;2022-11-27T01:19:11;17.63;;;8.13;;
13439;SDS011;6792;57.698;11.946;2022-11-27T01:21:40;19.43;;;8.87;;
13439;SDS011;6792;57.698;11.946;2022-11-27T01:24:09;13.97;;;6.83;;
13439;SDS011;6792;57.698;11.946;2022-11-27T01:26:40;17.97;;;7.83;;
13439;SDS011;6792;57.698;11.946;2022-11-27T01:29:10;24.87;;;8.47;;
13439;SDS011;6792;57.698;11.946;2022-11-27T01:31:39;16.93;;;8.20;;
13439;SDS011;6792;57.698;11.946;2022-11-27T01:34:12;21.10;;;7.70;;
13439;SDS011;6792;57.698;11.946;2022-11-27T01:36:42;19.80;;;7.90;;
13439;SDS011;6792;57.698;11.946;2022-11-27T01:39:13;20.43;;;8.10;;
13439;SDS011;6792;57.698;11.946;2022-11-27T01:41:44;18.90;;;8.13;;
13439;SDS011;6792;57.698;11.946;2022-11-27T01:47:22;20.93;;;8.13;;
13439;SDS011;6792;57.698;11.946;2022-11-27T01:49:57;23.97;;;8.33;;
13439;SDS011;6792;57.698;11.946;2022-11-27T01:52:31;16.50;;;8.07;;
13439;SDS011;6792;57.698;11.946;2022-11-27T01:55:03;20.03;;;8.03;;
13439;SDS011;6792;57.698;11.946;2022-11-27T01:57:34;20.00;;;8.53;;
13439;SDS011;6792;57.698;11.946;2022-11-27T02:00:07;20.27;;;7.53;;
13439;SDS011;6792;57.698;11.946;2022-11-27T02:02:39;14.43;;;7.17;;
13439;SDS011;6792;57.698;11.946;2022-11-27T02:05:13;15.80;;;6.97;;
13439;SDS011;6792;57.698;11.946;2022-11-27T02:07:44;15.57;;;6.07;;
13439;SDS011;6792;57.698;11.946;2022-11-27T02:10:14;13.93;;;6.93;;
13439;SDS011;6792;57.698;11.946;2022-11-27T02:12:48;13.17;;;7.13;;
13439;SDS011;6792;57.698;11.946;2022-11-27T02:15:22;13.50;;;6.80;;
13439;SDS011;6792;57.698;11.946;2022-11-27T02:17:56;13.97;;;6.53;;
13439;SDS011;6792;57.698;11.946;2022-11-27T02:20:33;12.83;;;5.80;;
13439;SDS011;6792;57.698;11.946;2022-11-27T02:23:21;12.13;;;6.13;;
13439;SDS011;6792;57.698;11.946;2022-11-27T02:26:31;12.10;;;5.90;;
13439;SDS011;6792;57.698;11.946;2022-11-27T02:29:05;9.97;;;5.70;;
13439;SDS011;6792;57.698;11.946;2022-11-27T02:31:37;8.90;;;5.27;;
13439;SDS011;6792;57.698;11.946;2022-11-27T02:34:12;10.33;;;5.10;;
13439;SDS011;6792;57.698;11.946;2022-11-27T02:36:48;12.17;;;5.37;;
13439;SDS011;6792;57.698;11.946;2022-11-27T02:39:19;12.13;;;5.10;;
13439;SDS011;6792;57.698;11.946;2022-11-27T02:41:53;13.37;;;5.27;;
13439;SDS011;6792;57.698;11.946;2022-11-27T02:44:24;7.80;;;5.07;;
13439;SDS011;6792;57.698;11.946;2022-11-27T02:46:55;11.90;;;5.13;;
13439;SDS011;6792;57.698;11.946;2022-11-27T02:49:27;10.90;;;5.07;;
13439;SDS011;6792;57.698;11.946;2022-11-27T02:51:57;10.50;;;4.57;;
13439;SDS011;6792;57.698;11.946;2022-11-27T02:54:30;10.87;;;5.30;;
13439;SDS011;6792;57.698;11.946;2022-11-27T02:57:01;9.47;;;4.87;;
13439;SDS011;6792;57.698;11.946;2022-11-27T02:59:33;10.63;;;4.87;;
13439;SDS011;6792;57.698;11.946;2022-11-27T03:02:05;11.70;;;5.03;;
13439;SDS011;6792;57.698;11.946;2022-11-27T03:04:37;8.10;;;4.40;;
13439;SDS011;6792;57.698;11.946;2022-11-27T03:07:11;11.83;;;5.10;;
13439;SDS011;6792;57.698;11.946;2022-11-27T03:09:42;10.47;;;4.23;;
13439;SDS011;6792;57.698;11.946;2022-11-27T03:12:14;9.33;;;4.50;;
13439;SDS011;6792;57.698;11.946;2022-11-27T03:14:44;8.83;;;4.80;;
13439;SDS011;6792;57.698;11.946;2022-11-27T03:17:17;9.33;;;4.93;;
13439;SDS011;6792;57.698;11.946;2022-11-27T03:19:51;6.60;;;4.23;;
13439;SDS011;6792;57.698;11.946;2022-11-27T03:22:23;7.33;;;4.47;;
13439;SDS011;6792;57.698;11.946;2022-11-27T03:24:53;10.90;;;4.63;;
13439;SDS011;6792;57.698;11.946;2022-11-27T03:27:26;7.30;;;3.97;;
13439;SDS011;6792;57.698;11.946;2022-11-27T03:29:57;7.07;;;4.83;;
13439;SDS011;6792;57.698;11.946;2022-11-27T03:32:28;8.40;;;3.97;;
13439;SDS011;6792;57.698;11.946;2022-11-27T03:34:59;9.10;;;4.70;;
13439;SDS011;6792;57.698;11.946;2022-11-27T03:37:28;6.77;;;4.10;;
13439;SDS011;6792;57.698;11.946;2022-11-27T03:39:57;6.30;;;4.30;;
13439;SDS011;6792;57.698;11.946;2022-11-27T03:42:27;6.80;;;3.80;;
13439;SDS011;6792;57.698;11.946;2022-11-27T03:45:02;8.03;;;4.53;;
13439;SDS011;6792;57.698;11.946;2022-11-27T03:47:40;7.07;;;3.80;;
13439;SDS011;6792;57.698;11.946;2022-11-27T03:50:17;8.43;;;3.83;;
13439;SDS011;6792;57.698;11.946;2022-11-27T03:52:51;4.67;;;3.60;;
13439;SDS011;6792;57.698;11.946;2022-11-27T03:55:27;5.60;;;3.33;;
13439;SDS011;6792;57.698;11.946;2022-11-27T03:58:01;8.17;;;3.57;;
13439;SDS011;6792;57.698;11.946;2022-11-27T04:00:32;7.60;;;3.93;;
13439;SDS011;6792;57.698;11.946;2022-11-27T04:03:02;7.73;;;3.90;;
13439;SDS011;6792;57.698;11.946;2022-11-27T04:05:33;7.83;;;4.17;;
13439;SDS011;6792;57.698;11.946;2022-11-27T04:08:02;5.67;;;3.30;;
13439;SDS011;6792;57.698;11.946;2022-11-27T04:10:34;6.57;;;3.17;;
13439;SDS011;6792;57.698;11.946;2022-11-27T04:13:03;4.67;;;3.20;;
13439;SDS011;6792;57.698;11.946;2022-11-27T04:15:33;7.10;;;3.57;;
13439;SDS011;6792;57.698;11.946;2022-11-27T04:18:03;5.07;;;3.50;;
13439;SDS011;6792;57.698;11.946;2022-11-27T04:20:32;6.57;;;3.43;;
13439;SDS011;6792;57.698;11.946;2022-11-27T04:23:01;4.27;;;3.00;;
13439;SDS011;6792;57.698;11.946;2022-11-27T04:25:30;4.50;;;2.80;;
13439;SDS011;6792;57.698;11.946;2022-11-27T04:28:01;4.20;;;3.00;;
13439;SDS011;6792;57.698;11.946;2022-11-27T04:30:34;6.30;;;3.10;;
13439;SDS011;6792;57.698;11.946;2022-11-27T04:33:03;4.40;;;3.13;;
13439;SDS011;6792;57.698;11.946;2022-11-27T04:35:34;4.77;;;3.07;;
13439;SDS011;6792;57.698;11.946;2022-11-27T04:38:03;4.07;;;2.50;;
13439;SDS011;6792;57.698;11.946;2022-11-27T04:40:35;5.40;;;3.13;;
13439;SDS011;6792;57.698;11.946;2022-11-27T04:43:04;6.17;;;3.00;;
13439;SDS011;6792;57.698;11.946;2022-11-27T04:45:33;4.70;;;2.80;;
13439;SDS011;6792;57.698;11.946;2022-11-27T04:48:06;4.73;;;3.27;;
13439;SDS011;6792;57.698;11.946;2022-11-27T04:50:35;5.27;;;3.00;;
13439;SDS011;6792;57.698;11.946;2022-11-27T04:53:04;3.87;;;2.90;;
13439;SDS011;6792;57.698;11.946;2022-11-27T04:55:34;4.70;;;2.97;;
13439;SDS011;6792;57.698;11.946;2022-11-27T04:58:03;7.10;;;3.37;;
13439;SDS011;6792;57.698;11.946;2022-11-27T05:00:32;5.37;;;2.97;;
13439;SDS011;6792;57.698;11.946;2022-11-27T05:03:01;5.17;;;2.80;;
13439;SDS011;6792;57.698;11.946;2022-11-27T05:05:30;3.97;;;2.60;;
13439;SDS011;6792;57.698;11.946;2022-11-27T05:08:03;3.57;;;2.90;;
13439;SDS011;6792;57.698;11.946;2022-11-27T05:10:32;4.57;;;2.67;;
13439;SDS011;6792;57.698;11.946;2022-11-27T05:13:03;4.57;;;2.90;;
13439;SDS011;6792;57.698;11.946;2022-11-27T05:15:34;4.03;;;2.73;;
13439;SDS011;6792;57.698;11.946;2022-11-27T05:18:03;3.80;;;2.63;;
13439;SDS011;6792;57.698;11.946;2022-11-27T05:20:32;3.47;;;2.40;;
13439;SDS011;6792;57.698;11.946;2022-11-27T05:23:01;5.20;;;3.03;;
13439;SDS011;6792;57.698;11.946;2022-11-27T05:25:30;3.53;;;2.33;;
13439;SDS011;6792;57.698;11.946;2022-11-27T05:28:00;4.37;;;2.20;;
13439;SDS011;6792;57.698;11.946;2022-11-27T05:30:30;3.63;;;2.40;;
13439;SDS011;6792;57.698;11.946;2022-11-27T05:33:05;3.03;;;1.87;;
13439;SDS011;6792;57.698;11.946;2022-11-27T05:35:34;4.17;;;2.57;;
13439;SDS011;6792;57.698;11.946;2022-11-27T05:38:03;3.17;;;2.27;;
13439;SDS011;6792;57.698;11.946;2022-11-27T05:40:33;4.00;;;2.27;;
13439;SDS011;6792;57.698;11.946;2022-11-27T05:43:05;4.27;;;2.33;;
13439;SDS011;6792;57.698;11.946;2022-11-27T05:45:36;2.63;;;2.20;;
13439;SDS011;6792;57.698;11.946;2022-11-27T05:48:07;4.73;;;2.00;;
13439;SDS011;6792;57.698;11.946;2022-11-27T05:50:36;3.00;;;2.20;;
13439;SDS011;6792;57.698;11.946;2022-11-27T05:53:05;3.40;;;2.07;;
13439;SDS011;6792;57.698;11.946;2022-11-27T05:55:34;3.90;;;2.43;;
13439;SDS011;6792;57.698;11.946;2022-11-27T05:58:05;4.50;;;2.50;;
13439;SDS011;6792;57.698;11.946;2022-11-27T06:00:34;4.43;;;2.33;;
13439;SDS011;6792;57.698;11.946;2022-11-27T06:03:03;2.47;;;1.93;;
13439;SDS011;6792;57.698;11.946;2022-11-27T06:05:32;2.47;;;2.03;;
13439;SDS011;6792;57.698;11.946;2022-11-27T06:08:06;4.77;;;2.00;;
13439;SDS011;6792;57.698;11.946;2022-11-27T06:10:36;4.17;;;2.27;;
13439;SDS011;6792;57.698;11.946;2022-11-27T06:13:05;3.93;;;2.30;;
13439;SDS011;6792;57.698;11.946;2022-11-27T06:15:35;6.33;;;2.53;;
13439;SDS011;6792;57.698;11.946;2022-11-27T06:18:04;4.90;;;2.40;;
13439;SDS011;6792;57.698;11.946;2022-11-27T06:20:33;4.20;;;2.30;;
13439;SDS011;6792;57.698;11.946;2022-11-27T06:23:05;3.17;;;2.27;;
13439;SDS011;6792;57.698;11.946;2022-11-27T06:25:34;3.27;;;2.13;;
13439;SDS011;6792;57.698;11.946;2022-11-27T06:28:03;4.37;;;2.20;;
13439;SDS011;6792;57.698;11.946;2022-11-27T06:30:32;5.90;;;2.70;;
13439;SDS011;6792;57.698;11.946;2022-11-27T06:33:03;2.97;;;1.97;;
13439;SDS011;6792;57.698;11.946;2022-11-27T06:35:34;2.77;;;2.20;;
13439;SDS011;6792;57.698;11.946;2022-11-27T06:38:06;3.03;;;2.13;;
13439;SDS011;6792;57.698;11.946;2022-11-27T06:40:35;4.17;;;2.50;;
13439;SDS011;6792;57.698;11.946;2022-11-27T06:43:04;3.10;;;2.10;;
13439;SDS011;6792;57.698;11.946;2022-11-27T06:48:10;6.83;;;2.30;;
13439;SDS011;6792;57.698;11.946;2022-11-27T06:50:38;2.87;;;2.03;;
13439;SDS011;6792;57.698;11.946;2022-11-27T06:53:07;2.47;;;1.60;;
13439;SDS011;6792;57.698;11.946;2022-11-27T06:55:37;2.83;;;2.10;;
13439;SDS011;6792;57.698;11.946;2022-11-27T06:58:06;2.63;;;1.87;;
13439;SDS011;6792;57.698;11.946;2022-11-27T07:00:35;5.97;;;2.17;;
13439;SDS011;6792;57.698;11.946;2022-11-27T07:03:04;4.63;;;1.83;;
13439;SDS011;6792;57.698;11.946;2022-11-27T07:05:33;4.93;;;1.73;;
13439;SDS011;6792;57.698;11.946;2022-11-27T07:08:05;3.30;;;1.57;;
13439;SDS011;6792;57.698;11.946;2022-11-27T07:10:34;3.13;;;1.10;;
13439;SDS011;6792;57.698;11.946;2022-11-27T07:13:03;3.07;;;1.20;;
13439;SDS011;6792;57.698;11.946;2022-11-27T07:15:33;1.30;;;1.20;;
13439;SDS011;6792;57.698;11.946;2022-11-27T07:18:02;2.80;;;1.23;;
13439;SDS011;6792;57.698;11.946;2022-11-27T07:20:31;3.30;;;1.23;;
13439;SDS011;6792;57.698;11.946;2022-11-27T07:23:01;2.50;;;1.60;;
13439;SDS011;6792;57.698;11.946;2022-11-27T07:25:30;1.87;;;1.40;;
13439;SDS011;6792;57.698;11.946;2022-11-27T07:27:59;1.57;;;1.30;;
13439;SDS011;6792;57.698;11.946;2022-11-27T07:30:29;2.93;;;1.20;;
13439;SDS011;6792;57.698;11.946;2022-11-27T07:32:58;2.20;;;1.00;;
13439;SDS011;6792;57.698;11.946;2022-11-27T07:35:27;1.43;;;1.10;;
13439;SDS011;6792;57.698;11.946;2022-11-27T07:37:56;1.47;;;1.13;;
13439;SDS011;6792;57.698;11.946;2022-11-27T07:40:25;2.97;;;1.13;;
13439;SDS011;6792;57.698;11.946;2022-11-27T07:42:54;2.83;;;1.37;;
13439;SDS011;6792;57.698;11.946;2022-11-27T07:45:24;2.70;;;1.20;;
13439;SDS011;6792;57.698;11.946;2022-11-27T07:47:53;3.23;;;1.50;;
13439;SDS011;6792;57.698;11.946;2022-11-27T07:50:22;1.70;;;1.40;;
13439;SDS011;6792;57.698;11.946;2022-11-27T07:52:51;3.50;;;1.40;;
13439;SDS011;6792;57.698;11.946;2022-11-27T07:55:20;1.70;;;1.30;;
13439;SDS011;6792;57.698;11.946;2022-11-27T07:57:49;2.90;;;1.47;;
13439;SDS011;6792;57.698;11.946;2022-11-27T08:00:19;2.37;;;1.40;;
13439;SDS011;6792;57.698;11.946;2022-11-27T08:02:49;2.87;;;1.60;;
13439;SDS011;6792;57.698;11.946;2022-11-27T08:05:18;2.13;;;1.27;;
13439;SDS011;6792;57.698;11.946;2022-11-27T08:07:47;2.10;;;1.37;;
13439;SDS011;6792;57.698;11.946;2022-11-27T08:10:16;2.37;;;1.60;;
13439;SDS011;6792;57.698;11.946;2022-11-27T08:12:45;1.90;;;1.70;;
13439;SDS011;6792;57.698;11.946;2022-11-27T08:15:14;4.97;;;2.77;;
13439;SDS011;6792;57.698;11.946;2022-11-27T08:17:46;5.87;;;2.60;;
13439;SDS011;6792;57.698;11.946;2022-11-27T08:20:15;4.73;;;1.73;;
13439;SDS011;6792;57.698;11.946;2022-11-27T08:22:45;3.60;;;2.10;;
13439;SDS011;6792;57.698;11.946;2022-11-27T08:25:15;2.73;;;1.90;;
13439;SDS011;6792;57.698;11.946;2022-11-27T08:27:44;3.93;;;2.53;;
13439;SDS011;6792;57.698;11.946;2022-11-27T08:30:14;5.27;;;2.00;;
13439;SDS011;6792;57.698;11.946;2022-11-27T08:32:43;2.47;;;1.80;;
13439;SDS011;6792;57.698;11.946;2022-11-27T08:35:12;4.47;;;2.30;;
13439;SDS011;6792;57.698;11.946;2022-11-27T08:37:41;2.63;;;2.17;;
13439;SDS011;6792;57.698;11.946;2022-11-27T08:40:10;3.53;;;2.13;;
13439;SDS011;6792;57.698;11.946;2022-11-27T08:42:39;2.97;;;2.00;;
13439;SDS011;6792;57.698;11.946;2022-11-27T08:45:09;3.90;;;1.80;;
13439;SDS011;6792;57.698;11.946;2022-11-27T08:47:38;4.57;;;2.03;;
13439;SDS011;6792;57.698;11.946;2022-11-27T08:50:09;2.03;;;1.70;;
13439;SDS011;6792;57.698;11.946;2022-11-27T08:52:38;3.10;;;1.67;;
13439;SDS011;6792;57.698;11.946;2022-11-27T08:55:07;3.87;;;1.90;;
13439;SDS011;6792;57.698;11.946;2022-11-27T08:57:36;4.50;;;2.20;;
13439;SDS011;6792;57.698;11.946;2022-11-27T09:00:07;3.57;;;2.00;;
13439;SDS011;6792;57.698;11.946;2022-11-27T09:02:38;4.90;;;2.07;;
13439;SDS011;6792;57.698;11.946;2022-11-27T09:05:07;3.70;;;1.90;;
13439;SDS011;6792;57.698;11.946;2022-11-27T09:07:37;3.00;;;1.83;;
13439;SDS011;6792;57.698;11.946;2022-11-27T09:10:07;2.47;;;1.90;;
13439;SDS011;6792;57.698;11.946;2022-11-27T09:12:36;3.67;;;1.77;;
13439;SDS011;6792;57.698;11.946;2022-11-27T09:15:06;7.63;;;1.93;;
13439;SDS011;6792;57.698;11.946;2022-11-27T09:17:39;1.83;;;1.53;;
13439;SDS011;6792;57.698;11.946;2022-11-27T09:20:08;3.77;;;1.83;;
13439;SDS011;6792;57.698;11.946;2022-11-27T09:22:41;2.97;;;2.00;;
13439;SDS011;6792;57.698;11.946;2022-11-27T09:25:10;2.33;;;1.73;;
13439;SDS011;6792;57.698;11.946;2022-11-27T09:27:39;3.87;;;2.00;;
13439;SDS011;6792;57.698;11.946;2022-11-27T09:30:09;2.17;;;1.57;;
13439;SDS011;6792;57.698;11.946;2022-11-27T09:32:39;3.90;;;2.30;;
13439;SDS011;6792;57.698;11.946;2022-11-27T09:35:08;4.10;;;1.80;;
13439;SDS011;6792;57.698;11.946;2022-11-27T09:37:37;1.87;;;1.40;;
13439;SDS011;6792;57.698;11.946;2022-11-27T09:40:12;3.67;;;1.83;;
13439;SDS011;6792;57.698;11.946;2022-11-27T09:42:45;2.90;;;1.53;;
13439;SDS011;6792;57.698;11.946;2022-11-27T09:45:16;3.80;;;1.93;;
13439;SDS011;6792;57.698;11.946;2022-11-27T09:47:47;4.87;;;1.90;;
13439;SDS011;6792;57.698;11.946;2022-11-27T09:50:19;3.07;;;1.67;;
13439;SDS011;6792;57.698;11.946;2022-11-27T09:52:51;3.20;;;1.60;;
13439;SDS011;6792;57.698;11.946;2022-11-27T09:55:23;5.23;;;1.97;;
13439;SDS011;6792;57.698;11.946;2022-11-27T09:57:57;3.33;;;1.67;;
13439;SDS011;6792;57.698;11.946;2022-11-27T10:00:27;4.03;;;1.50;;
13439;SDS011;6792;57.698;11.946;2022-11-27T10:02:56;2.00;;;1.80;;
13439;SDS011;6792;57.698;11.946;2022-11-27T10:05:27;6.13;;;1.97;;
13439;SDS011;6792;57.698;11.946;2022-11-27T10:11:11;10.37;;;2.33;;
13439;SDS011;6792;57.698;11.946;2022-11-27T10:13:50;2.40;;;1.50;;
13439;SDS011;6792;57.698;11.946;2022-11-27T10:16:25;1.83;;;1.40;;
13439;SDS011;6792;57.698;11.946;2022-11-27T10:19:02;2.40;;;1.90;;
13439;SDS011;6792;57.698;11.946;2022-11-27T10:21:37;5.07;;;2.27;;
13439;SDS011;6792;57.698;11.946;2022-11-27T10:24:11;2.70;;;2.00;;
13439;SDS011;6792;57.698;11.946;2022-11-27T10:26:44;2.67;;;1.87;;
13439;SDS011;6792;57.698;11.946;2022-11-27T10:29:16;2.47;;;1.83;;
13439;SDS011;6792;57.698;11.946;2022-11-27T10:31:50;5.10;;;2.50;;
13439;SDS011;6792;57.698;11.946;2022-11-27T10:34:25;3.67;;;2.10;;
13439;SDS011;6792;57.698;11.946;2022-11-27T10:36:56;5.83;;;2.73;;
13439;SDS011;6792;57.698;11.946;2022-11-27T10:39:29;3.73;;;2.83;;
13439;SDS011;6792;57.698;11.946;2022-11-27T10:42:02;4.70;;;2.40;;
13439;SDS011;6792;57.698;11.946;2022-11-27T10:44:34;2.73;;;2.10;;
13439;SDS011;6792;57.698;11.946;2022-11-27T10:47:07;6.10;;;2.97;;
13439;SDS011;6792;57.698;11.946;2022-11-27T10:49:38;5.50;;;3.07;;
13439;SDS011;6792;57.698;11.946;2022-11-27T10:52:10;5.00;;;2.40;;
13439;SDS011;6792;57.698;11.946;2022-11-27T10:54:40;3.63;;;2.20;;
13439;SDS011;6792;57.698;11.946;2022-11-27T10:57:20;3.37;;;2.73;;
13439;SDS011;6792;57.698;11.946;2022-11-27T11:00:06;3.80;;;2.70;;
13439;SDS011;6792;57.698;11.946;2022-11-27T11:02:40;3.97;;;3.10;;
13439;SDS011;6792;57.698;11.946;2022-11-27T11:05:10;6.87;;;3.53;;
13439;SDS011;6792;57.698;11.946;2022-11-27T11:07:41;7.73;;;3.10;;
13439;SDS011;6792;57.698;11.946;2022-11-27T11:10:20;6.37;;;3.00;;
13439;SDS011;6792;57.698;11.946;2022-11-27T11:13:04;6.47;;;3.37;;
13439;SDS011;6792;57.698;11.946;2022-11-27T11:15:42;8.07;;;3.77;;
13439;SDS011;6792;57.698;11.946;2022-11-27T11:18:16;6.07;;;3.37;;
13439;SDS011;6792;57.698;11.946;2022-11-27T11:20:49;7.23;;;3.50;;
13439;SDS011;6792;57.698;11.946;2022-11-27T11:23:23;7.23;;;3.50;;
13439;SDS011;6792;57.698;11.946;2022-11-27T11:26:04;7.57;;;3.33;;
13439;SDS011;6792;57.698;11.946;2022-11-27T11:28:40;8.47;;;3.67;;
13439;SDS011;6792;57.698;11.946;2022-11-27T11:31:09;7.03;;;3.57;;
13439;SDS011;6792;57.698;11.946;2022-11-27T11:33:47;5.53;;;3.57;;
13439;SDS011;6792;57.698;11.946;2022-11-27T11:36:19;7.57;;;3.57;;
13439;SDS011;6792;57.698;11.946;2022-11-27T11:38:49;6.93;;;3.70;;
13439;SDS011;6792;57.698;11.946;2022-11-27T11:41:18;4.63;;;2.83;;
13439;SDS011;6792;57.698;11.946;2022-11-27T11:43:56;6.70;;;3.57;;
13439;SDS011;6792;57.698;11.946;2022-11-27T11:46:27;7.37;;;3.70;;
13439;SDS011;6792;57.698;11.946;2022-11-27T11:48:59;8.47;;;4.10;;
13439;SDS011;6792;57.698;11.946;2022-11-27T11:51:39;6.27;;;3.33;;
13439;SDS011;6792;57.698;11.946;2022-11-27T11:54:17;4.97;;;3.43;;
13439;SDS011;6792;57.698;11.946;2022-11-27T11:56:51;7.10;;;3.50;;
13439;SDS011;6792;57.698;11.946;2022-11-27T11:59:24;7.37;;;3.63;;
13439;SDS011;6792;57.698;11.946;2022-11-27T12:02:01;10.40;;;3.97;;
13439;SDS011;6792;57.698;11.946;2022-11-27T12:04:49;7.73;;;3.80;;
13439;SDS011;6792;57.698;11.946;2022-11-27T12:07:32;7.67;;;3.97;;
13439;SDS011;6792;57.698;11.946;2022-11-27T12:10:07;9.17;;;3.93;;
13439;SDS011;6792;57.698;11.946;2022-11-27T12:12:43;6.97;;;3.73;;
13439;SDS011;6792;57.698;11.946;2022-11-27T12:15:16;9.50;;;4.53;;
13439;SDS011;6792;57.698;11.946;2022-11-27T12:17:51;9.80;;;4.47;;
13439;SDS011;6792;57.698;11.946;2022-11-27T12:20:26;7.53;;;3.70;;
13439;SDS011;6792;57.698;11.946;2022-11-27T12:23:15;8.17;;;4.03;;
13439;SDS011;6792;57.698;11.946;2022-11-27T12:26:03;7.97;;;4.33;;
13439;SDS011;6792;57.698;11.946;2022-11-27T12:28:49;10.80;;;4.27;;
13439;SDS011;6792;57.698;11.946;2022-11-27T12:31:25;11.00;;;4.70;;
13439;SDS011;6792;57.698;11.946;2022-11-27T12:34:00;7.83;;;4.53;;
13439;SDS011;6792;57.698;11.946;2022-11-27T12:36:35;8.03;;;4.50;;
13439;SDS011;6792;57.698;11.946;2022-11-27T12:39:11;9.60;;;4.23;;
13439;SDS011;6792;57.698;11.946;2022-11-27T12:41:50;9.33;;;4.50;;
13439;SDS011;6792;57.698;11.946;2022-11-27T12:44:35;9.97;;;4.70;;
13439;SDS011;6792;57.698;11.946;2022-11-27T12:47:10;10.53;;;4.97;;
13439;SDS011;6792;57.698;11.946;2022-11-27T12:49:43;9.27;;;4.50;;
13439;SDS011;6792;57.698;11.946;2022-11-27T12:52:15;9.43;;;4.57;;
13439;SDS011;6792;57.698;11.946;2022-11-27T12:54:47;7.90;;;5.00;;
13439;SDS011;6792;57.698;11.946;2022-11-27T12:57:21;11.70;;;5.47;;
13439;SDS011;6792;57.698;11.946;2022-11-27T12:59:53;10.17;;;5.13;;
13439;SDS011;6792;57.698;11.946;2022-11-27T13:02:41;7.80;;;4.90;;
13439;SDS011;6792;57.698;11.946;2022-11-27T13:05:14;8.60;;;5.17;;
13439;SDS011;6792;57.698;11.946;2022-11-27T13:07:46;6.93;;;4.60;;
13439;SDS011;6792;57.698;11.946;2022-11-27T13:10:23;10.67;;;5.00;;
13439;SDS011;6792;57.698;11.946;2022-11-27T13:12:56;10.83;;;5.03;;
13439;SDS011;6792;57.698;11.946;2022-11-27T13:15:30;10.70;;;5.00;;
13439;SDS011;6792;57.698;11.946;2022-11-27T13:18:03;10.33;;;4.33;;
13439;SDS011;6792;57.698;11.946;2022-11-27T13:20:35;9.17;;;4.80;;
13439;SDS011;6792;57.698;11.946;2022-11-27T13:23:07;9.40;;;3.97;;
13439;SDS011;6792;57.698;11.946;2022-11-27T13:25:38;8.63;;;4.90;;
13439;SDS011;6792;57.698;11.946;2022-11-27T13:28:12;13.73;;;5.50;;
13439;SDS011;6792;57.698;11.946;2022-11-27T13:30:46;8.77;;;4.40;;
13439;SDS011;6792;57.698;11.946;2022-11-27T13:33:20;8.80;;;4.90;;
13439;SDS011;6792;57.698;11.946;2022-11-27T13:35:53;11.50;;;5.00;;
13439;SDS011;6792;57.698;11.946;2022-11-27T13:38:24;9.77;;;4.93;;
13439;SDS011;6792;57.698;11.946;2022-11-27T13:40:54;6.57;;;4.63;;
13439;SDS011;6792;57.698;11.946;2022-11-27T13:43:27;12.33;;;4.50;;
13439;SDS011;6792;57.698;11.946;2022-11-27T13:46:05;7.87;;;4.53;;
13439;SDS011;6792;57.698;11.946;2022-11-27T13:48:37;10.23;;;4.13;;
13439;SDS011;6792;57.698;11.946;2022-11-27T13:51:08;6.57;;;4.03;;
13439;SDS011;6792;57.698;11.946;2022-11-27T13:53:40;11.03;;;4.50;;
13439;SDS011;6792;57.698;11.946;2022-11-27T13:56:09;8.50;;;4.20;;
13439;SDS011;6792;57.698;11.946;2022-11-27T13:58:40;7.17;;;4.00;;
13439;SDS011;6792;57.698;11.946;2022-11-27T14:01:14;4.40;;;3.60;;
13439;SDS011;6792;57.698;11.946;2022-11-27T14:03:45;8.77;;;4.67;;
13439;SDS011;6792;57.698;11.946;2022-11-27T14:06:18;8.90;;;5.10;;
13439;SDS011;6792;57.698;11.946;2022-11-27T14:08:56;7.53;;;4.13;;
13439;SDS011;6792;57.698;11.946;2022-11-27T14:11:36;8.87;;;4.50;;
13439;SDS011;6792;57.698;11.946;2022-11-27T14:14:12;8.23;;;3.83;;
13439;SDS011;6792;57.698;11.946;2022-11-27T14:16:52;7.73;;;3.67;;
13439;SDS011;6792;57.698;11.946;2022-11-27T14:19:27;10.37;;;3.70;;
13439;SDS011;6792;57.698;11.946;2022-11-27T14:21:59;10.03;;;4.23;;
13439;SDS011;6792;57.698;11.946;2022-11-27T14:24:34;6.27;;;3.30;;
13439;SDS011;6792;57.698;11.946;2022-11-27T14:27:08;5.37;;;2.90;;
13439;SDS011;6792;57.698;11.946;2022-11-27T14:29:43;8.17;;;3.40;;
13439;SDS011;6792;57.698;11.946;2022-11-27T14:32:14;5.40;;;3.40;;
13439;SDS011;6792;57.698;11.946;2022-11-27T14:34:43;9.17;;;3.03;;
13439;SDS011;6792;57.698;11.946;2022-11-27T14:37:21;4.77;;;2.80;;
13439;SDS011;6792;57.698;11.946;2022-11-27T14:39:51;9.63;;;3.33;;
13439;SDS011;6792;57.698;11.946;2022-11-27T14:42:21;5.97;;;3.37;;
13439;SDS011;6792;57.698;11.946;2022-11-27T14:44:59;4.47;;;3.27;;
13439;SDS011;6792;57.698;11.946;2022-11-27T14:47:29;9.83;;;3.70;;
13439;SDS011;6792;57.698;11.946;2022-11-27T14:50:01;7.00;;;3.07;;
13439;SDS011;6792;57.698;11.946;2022-11-27T14:52:36;3.80;;;3.00;;
13439;SDS011;6792;57.698;11.946;2022-11-27T14:55:05;5.07;;;2.93;;
13439;SDS011;6792;57.698;11.946;2022-11-27T14:57:40;5.90;;;3.20;;
13439;SDS011;6792;57.698;11.946;2022-11-27T15:00:19;6.20;;;3.47;;
13439;SDS011;6792;57.698;11.946;2022-11-27T15:02:52;4.50;;;3.20;;
13439;SDS011;6792;57.698;11.946;2022-11-27T15:05:22;6.23;;;3.97;;
13439;SDS011;6792;57.698;11.946;2022-11-27T15:07:54;6.60;;;3.47;;
13439;SDS011;6792;57.698;11.946;2022-11-27T15:10:32;4.93;;;3.60;;
13439;SDS011;6792;57.698;11.946;2022-11-27T15:13:03;8.30;;;3.97;;
13439;SDS011;6792;57.698;11.946;2022-11-27T15:15:37;6.07;;;3.87;;
13439;SDS011;6792;57.698;11.946;2022-11-27T15:18:07;6.17;;;3.80;;
13439;SDS011;6792;57.698;11.946;2022-11-27T15:20:42;6.20;;;4.17;;
13439;SDS011;6792;57.698;11.946;2022-11-27T15:23:14;6.80;;;4.00;;